Time;durP1;ratioP1;P1;durP2;ratioP2;P2;SDS_P1;SDS_P2;PMS_P1;PMS_P2;Temp;Humidity;BMP_temperature;BMP_pressure;BME280_temperature;BME280_humidity;BME280_pressure;Samples;Min_cycle;Max_cycle;Signal;HPM_P1;HPM_P2
2023/07/23 00:01:24;;;;;;;5.82;3.13;;;12.90;99.90;;;;;;5094291;28;20298;-86
2023/07/23 00:03:53;;;;;;;4.05;3.00;;;12.90;99.90;;;;;;5072862;28;20291;-86
2023/07/23 00:06:20;;;;;;;6.15;2.60;;;12.80;99.90;;;;;;5079362;28;20200;-85
2023/07/23 00:08:48;;;;;;;6.13;2.60;;;12.80;99.90;;;;;;5063815;28;20191;-86
2023/07/23 00:11:16;;;;;;;4.32;2.78;;;12.80;99.90;;;;;;5068097;28;20192;-85
2023/07/23 00:13:43;;;;;;;5.28;2.85;;;12.70;99.90;;;;;;5098656;28;20196;-85
2023/07/23 00:16:11;;;;;;;5.03;3.35;;;12.70;99.90;;;;;;5078751;28;20196;-86
2023/07/23 00:18:38;;;;;;;4.68;3.20;;;12.70;99.90;;;;;;5076200;28;20184;-85
2023/07/23 00:21:06;;;;;;;5.50;2.83;;;12.80;99.90;;;;;;5083185;28;20755;-85
2023/07/23 00:23:33;;;;;;;5.03;3.10;;;12.90;99.90;;;;;;5081458;28;20260;-85
2023/07/23 00:26:00;;;;;;;4.35;3.05;;;12.80;99.90;;;;;;5083235;28;20517;-86
2023/07/23 00:28:28;;;;;;;5.40;3.00;;;12.70;99.90;;;;;;5098606;28;20188;-86
2023/07/23 00:30:56;;;;;;;5.85;3.67;;;12.80;99.90;;;;;;5078656;28;20991;-86
2023/07/23 00:33:23;;;;;;;4.85;3.75;;;12.80;99.90;;;;;;5095816;28;20191;-85
2023/07/23 00:35:51;;;;;;;5.65;3.85;;;12.90;99.90;;;;;;5078801;28;20187;-85
2023/07/23 00:38:19;;;;;;;9.32;5.13;;;12.80;99.90;;;;;;5081492;28;20235;-86
2023/07/23 00:40:47;;;;;;;6.25;4.25;;;12.70;99.90;;;;;;5077117;28;20196;-86
2023/07/23 00:43:14;;;;;;;7.15;4.78;;;12.70;99.90;;;;;;5094437;28;20188;-85
2023/07/23 00:45:42;;;;;;;8.00;5.10;;;12.70;99.90;;;;;;5078414;28;20214;-86
2023/07/23 00:48:11;;;;;;;10.55;5.95;;;12.80;99.90;;;;;;5075955;28;20204;-86
2023/07/23 00:50:39;;;;;;;12.93;6.90;;;12.70;99.90;;;;;;5075389;28;20829;-86
2023/07/23 00:53:06;;;;;;;11.25;6.85;;;12.60;99.90;;;;;;5078045;28;20189;-85
2023/07/23 00:55:34;;;;;;;12.45;6.93;;;12.60;99.90;;;;;;5076891;28;20287;-86
2023/07/23 00:58:01;;;;;;;11.75;6.63;;;12.60;99.90;;;;;;5093768;28;20193;-86
2023/07/23 01:00:29;;;;;;;11.32;7.13;;;12.70;99.90;;;;;;5074685;28;20290;-85
2023/07/23 01:02:57;;;;;;;11.82;6.53;;;12.70;99.90;;;;;;5076453;28;20185;-86
2023/07/23 01:05:25;;;;;;;18.33;9.18;;;12.80;99.90;;;;;;5071559;28;20284;-85
2023/07/23 01:07:53;;;;;;;13.07;6.97;;;12.70;99.90;;;;;;5068365;28;20189;-86
2023/07/23 01:10:21;;;;;;;15.00;8.05;;;12.60;99.90;;;;;;5067525;28;20205;-86
2023/07/23 01:12:51;;;;;;;14.90;8.50;;;12.60;99.90;;;;;;5072817;28;20670;-86
2023/07/23 01:15:18;;;;;;;13.95;8.00;;;12.70;99.90;;;;;;5069250;28;20263;-86
2023/07/23 01:17:47;;;;;;;12.35;8.43;;;12.70;99.90;;;;;;5078256;28;20188;-86
2023/07/23 01:20:15;;;;;;;13.00;7.63;;;12.80;99.90;;;;;;5078557;28;20557;-86
2023/07/23 01:22:42;;;;;;;13.35;7.53;;;12.80;99.90;;;;;;5083174;28;20192;-85
2023/07/23 01:25:10;;;;;;;13.90;8.32;;;12.90;99.90;;;;;;5071000;28;20220;-87
2023/07/23 01:27:37;;;;;;;12.57;7.18;;;12.90;99.90;;;;;;5079988;28;20223;-86
2023/07/23 01:30:10;;;;;;;11.20;7.38;;;12.90;99.90;;;;;;5076146;28;20208;-86
2023/07/23 01:32:38;;;;;;;13.10;7.50;;;12.90;99.90;;;;;;5078676;28;20185;-88
2023/07/23 01:35:13;;;;;;;10.77;7.13;;;12.90;99.90;;;;;;5076145;28;20235;-86
2023/07/23 01:37:43;;;;;;;14.18;7.97;;;12.90;99.90;;;;;;5097559;28;20219;-85
2023/07/23 01:40:11;;;;;;;11.23;7.65;;;12.80;99.90;;;;;;5077724;28;20196;-87
2023/07/23 01:42:40;;;;;;;11.82;8.55;;;12.70;99.90;;;;;;5092706;28;20196;-86
2023/07/23 01:45:08;;;;;;;9.82;6.68;;;12.80;99.90;;;;;;5099926;28;20258;-85
2023/07/23 01:47:36;;;;;;;14.48;7.78;;;12.80;99.90;;;;;;5078059;28;20224;-86
2023/07/23 01:50:04;;;;;;;11.20;7.95;;;12.80;99.90;;;;;;5082856;28;20205;-85
2023/07/23 01:52:32;;;;;;;9.73;7.10;;;12.80;99.90;;;;;;5081886;28;20255;-86
2023/07/23 01:55:00;;;;;;;9.98;6.82;;;12.80;99.90;;;;;;5079370;28;20257;-85
2023/07/23 01:57:27;;;;;;;10.73;6.47;;;12.70;99.90;;;;;;5082738;28;20188;-84
2023/07/23 01:59:55;;;;;;;11.73;7.00;;;12.70;99.90;;;;;;5076141;28;20195;-87
2023/07/23 02:02:22;;;;;;;10.30;6.68;;;12.70;99.90;;;;;;5096523;28;20605;-85
2023/07/23 02:04:50;;;;;;;10.05;6.50;;;12.70;99.90;;;;;;5083627;28;20192;-85
2023/07/23 02:07:18;;;;;;;9.45;6.05;;;12.80;99.90;;;;;;5083051;28;20190;-85
2023/07/23 02:09:49;;;;;;;9.18;6.30;;;12.90;99.90;;;;;;5080428;28;20201;-85
2023/07/23 02:12:17;;;;;;;9.95;6.60;;;12.90;99.90;;;;;;5073907;28;20356;-85
2023/07/23 02:14:45;;;;;;;12.38;6.40;;;12.80;99.90;;;;;;5080883;28;20234;-85
2023/07/23 02:17:13;;;;;;;9.85;6.80;;;12.80;99.90;;;;;;5081618;28;20261;-86
2023/07/23 02:19:42;;;;;;;6.65;4.95;;;12.80;99.90;;;;;;5081943;28;20602;-85
2023/07/23 02:22:10;;;;;;;7.97;5.78;;;12.90;99.90;;;;;;5071036;28;20184;-86
2023/07/23 02:24:37;;;;;;;8.63;6.05;;;12.80;99.90;;;;;;5071013;28;20189;-86
2023/07/23 02:27:05;;;;;;;7.93;6.00;;;12.90;99.90;;;;;;5088721;28;20235;-86
2023/07/23 02:29:33;;;;;;;9.40;5.90;;;12.90;99.90;;;;;;5082019;28;20223;-87
2023/07/23 02:32:01;;;;;;;12.60;5.70;;;12.90;99.90;;;;;;5064884;28;20233;-85
2023/07/23 02:34:29;;;;;;;7.70;5.38;;;12.90;99.90;;;;;;5072123;28;20231;-87
2023/07/23 02:36:56;;;;;;;7.07;4.90;;;12.90;99.90;;;;;;5081034;28;20196;-86
2023/07/23 02:39:24;;;;;;;8.90;5.57;;;12.90;99.90;;;;;;5072547;28;20181;-86
2023/07/23 02:41:51;;;;;;;7.60;5.18;;;12.80;99.90;;;;;;5080966;28;20674;-85
2023/07/23 02:44:19;;;;;;;7.88;5.38;;;12.80;99.90;;;;;;5064469;28;20191;-86
2023/07/23 02:46:46;;;;;;;7.55;5.60;;;12.70;99.90;;;;;;5081028;28;20196;-86
2023/07/23 02:49:14;;;;;;;6.88;5.68;;;12.80;99.90;;;;;;5074078;28;20566;-86
2023/07/23 02:51:42;;;;;;;9.23;5.22;;;12.80;99.90;;;;;;5082251;28;20760;-86
2023/07/23 02:54:09;;;;;;;8.10;5.55;;;12.90;99.90;;;;;;5078720;28;20196;-86
2023/07/23 02:56:37;;;;;;;7.57;5.78;;;12.90;99.90;;;;;;5092231;28;20188;-87
2023/07/23 02:59:04;;;;;;;7.35;5.00;;;12.90;99.90;;;;;;5078185;28;20196;-86
2023/07/23 03:01:32;;;;;;;8.02;5.40;;;12.90;99.90;;;;;;5079604;28;20276;-87
2023/07/23 03:03:59;;;;;;;7.28;4.72;;;12.70;99.90;;;;;;5095430;28;20216;-85
2023/07/23 03:06:27;;;;;;;7.47;4.68;;;12.70;99.90;;;;;;5097463;28;20655;-86
2023/07/23 03:08:54;;;;;;;6.10;4.57;;;12.70;99.90;;;;;;5081742;28;20191;-85
2023/07/23 03:11:22;;;;;;;6.88;4.80;;;12.80;99.90;;;;;;5070800;28;20238;-85
2023/07/23 03:13:49;;;;;;;5.43;4.00;;;12.60;99.90;;;;;;5090584;28;20658;-86
2023/07/23 03:16:17;;;;;;;6.93;4.20;;;12.70;99.90;;;;;;5079185;28;20234;-86
2023/07/23 03:18:44;;;;;;;5.82;4.43;;;12.80;99.90;;;;;;5079983;28;20211;-86
2023/07/23 03:21:12;;;;;;;5.50;3.85;;;12.80;99.90;;;;;;5075608;28;20663;-85
2023/07/23 03:23:40;;;;;;;5.10;3.88;;;12.60;99.90;;;;;;5084030;28;20184;-86
2023/07/23 03:26:08;;;;;;;6.57;3.75;;;12.60;99.90;;;;;;5080229;28;20220;-85
2023/07/23 03:28:35;;;;;;;5.05;3.33;;;12.60;99.90;;;;;;5081818;28;20646;-85
2023/07/23 03:31:03;;;;;;;8.27;3.60;;;12.60;99.90;;;;;;5077781;28;20207;-85
2023/07/23 03:33:31;;;;;;;5.97;3.30;;;12.60;99.90;;;;;;5089615;28;20633;-84
2023/07/23 03:36:00;;;;;;;6.50;3.92;;;12.70;99.90;;;;;;5075690;28;20603;-85
2023/07/23 03:38:27;;;;;;;6.40;3.95;;;12.60;99.90;;;;;;5083599;28;20602;-87
2023/07/23 03:40:56;;;;;;;4.25;3.42;;;12.70;99.90;;;;;;5075812;28;20192;-86
2023/07/23 03:43:23;;;;;;;7.57;2.95;;;12.70;99.90;;;;;;5080014;28;20307;-85
2023/07/23 03:45:51;;;;;;;5.05;2.80;;;12.70;99.90;;;;;;5079683;28;20185;-85
2023/07/23 03:48:18;;;;;;;5.55;3.08;;;12.70;99.90;;;;;;5079406;28;20645;-85
2023/07/23 03:50:46;;;;;;;4.75;3.10;;;12.70;99.90;;;;;;5078346;28;20207;-85
2023/07/23 03:53:13;;;;;;;5.40;3.70;;;12.70;99.90;;;;;;5077553;28;20176;-86
2023/07/23 03:55:41;;;;;;;9.00;3.35;;;12.60;99.90;;;;;;5078602;28;20550;-85
2023/07/23 03:58:08;;;;;;;6.00;3.42;;;12.60;99.90;;;;;;5077295;28;20196;-86
2023/07/23 04:00:38;;;;;;;5.28;3.35;;;12.60;99.90;;;;;;5079036;28;20211;-86
2023/07/23 04:03:05;;;;;;;6.65;4.07;;;12.70;99.90;;;;;;5084569;28;20700;-85
2023/07/23 04:05:33;;;;;;;5.63;4.15;;;12.70;99.90;;;;;;5082809;28;20559;-86
2023/07/23 04:08:02;;;;;;;7.75;4.30;;;12.80;99.90;;;;;;5075800;28;20200;-86
2023/07/23 04:10:29;;;;;;;7.28;4.90;;;12.80;99.90;;;;;;5074202;28;20268;-85
2023/07/23 04:12:58;;;;;;;7.38;4.40;;;12.80;99.90;;;;;;5057250;28;20196;-85
2023/07/23 04:15:25;;;;;;;8.18;4.35;;;12.70;99.90;;;;;;5077883;28;20271;-85
2023/07/23 04:17:53;;;;;;;7.20;4.38;;;12.60;99.90;;;;;;5076194;28;20599;-86
2023/07/23 04:20:20;;;;;;;8.73;4.07;;;12.60;99.90;;;;;;5077196;28;20265;-85
2023/07/23 04:22:48;;;;;;;5.95;3.80;;;12.50;99.90;;;;;;5078271;28;20670;-85
2023/07/23 04:25:15;;;;;;;7.43;3.53;;;12.50;99.90;;;;;;5078578;28;20215;-84
2023/07/23 04:27:43;;;;;;;5.32;3.92;;;12.50;99.90;;;;;;5096830;28;20242;-85
2023/07/23 04:30:11;;;;;;;3.53;2.83;;;12.60;99.90;;;;;;5080788;28;20200;-86
2023/07/23 04:44:48;;;;;;;4.88;3.08;;;12.70;99.90;;;;;;5041165;28;20970;-82
2023/07/23 04:47:16;;;;;;;4.28;2.60;;;12.90;99.90;;;;;;5055505;28;20229;-81
2023/07/23 04:49:44;;;;;;;6.57;3.10;;;12.90;99.90;;;;;;5040701;28;20203;-81
2023/07/23 04:52:11;;;;;;;5.72;3.10;;;12.80;99.90;;;;;;5040026;28;20885;-81
2023/07/23 04:54:39;;;;;;;5.28;3.70;;;12.90;99.90;;;;;;5041203;27;21100;-80
2023/07/23 04:57:07;;;;;;;4.93;3.33;;;12.90;99.90;;;;;;5043511;28;20209;-81
2023/07/23 04:59:34;;;;;;;5.53;3.35;;;13.00;99.90;;;;;;5040757;28;20574;-81
2023/07/23 05:02:02;;;;;;;6.35;3.10;;;12.90;99.90;;;;;;5041442;28;20185;-81
2023/07/23 05:04:30;;;;;;;8.30;3.25;;;13.00;99.90;;;;;;5040227;28;20288;-81
2023/07/23 05:06:58;;;;;;;5.43;3.28;;;13.00;99.90;;;;;;5040083;28;20638;-81
2023/07/23 05:09:26;;;;;;;4.47;3.15;;;12.90;99.90;;;;;;5034989;28;20186;-81
2023/07/23 05:11:54;;;;;;;9.55;4.03;;;13.00;99.90;;;;;;5040418;28;20182;-81
2023/07/23 05:14:22;;;;;;;7.57;3.67;;;13.10;99.90;;;;;;5040466;28;20201;-81
2023/07/23 05:16:49;;;;;;;6.50;3.92;;;13.10;99.90;;;;;;5040277;28;20178;-80
2023/07/23 05:19:17;;;;;;;6.72;4.30;;;13.20;99.90;;;;;;5038840;28;20197;-80
2023/07/23 05:21:44;;;;;;;6.82;4.35;;;13.10;99.90;;;;;;5066011;28;20189;-81
2023/07/23 05:24:12;;;;;;;7.55;4.68;;;13.00;99.90;;;;;;5048518;28;20200;-81
2023/07/23 05:26:40;;;;;;;5.65;3.88;;;12.90;99.90;;;;;;5047388;28;20198;-81
2023/07/23 05:29:07;;;;;;;6.15;4.60;;;12.90;99.90;;;;;;5039701;28;20193;-82
2023/07/23 05:31:36;;;;;;;8.88;5.30;;;13.00;99.90;;;;;;5037465;28;20185;-81
2023/07/23 05:34:04;;;;;;;7.55;5.00;;;13.00;99.90;;;;;;5038923;28;20193;-80
2023/07/23 05:36:32;;;;;;;9.02;5.32;;;13.00;99.90;;;;;;5020834;28;20200;-81
2023/07/23 05:38:59;;;;;;;10.23;5.43;;;12.90;99.90;;;;;;5039069;28;20181;-80
2023/07/23 05:41:27;;;;;;;7.47;5.88;;;13.00;99.90;;;;;;5037825;28;20193;-81
2023/07/23 05:43:55;;;;;;;10.57;5.28;;;13.10;99.90;;;;;;5035569;28;20248;-81
2023/07/23 05:46:23;;;;;;;9.77;6.30;;;13.10;99.90;;;;;;5026358;28;20239;-81
2023/07/23 05:48:51;;;;;;;10.45;6.90;;;13.10;99.90;;;;;;5026940;28;20259;-80
2023/07/23 05:51:18;;;;;;;13.00;6.32;;;13.10;99.90;;;;;;5026864;28;20186;-81
2023/07/23 05:53:46;;;;;;;12.73;6.75;;;13.00;99.90;;;;;;5026116;28;20911;-82
2023/07/23 05:56:14;;;;;;;9.07;5.63;;;13.10;99.90;;;;;;5025717;28;20190;-79
2023/07/23 05:58:41;;;;;;;10.77;6.47;;;13.10;99.90;;;;;;5026356;28;20194;-83
2023/07/23 06:01:09;;;;;;;8.65;5.93;;;13.20;99.90;;;;;;5026446;28;20239;-83
2023/07/23 06:03:37;;;;;;;13.77;7.07;;;13.10;99.90;;;;;;5027018;28;20194;-80
2023/07/23 06:06:19;;;;;;;11.05;6.13;;;13.00;99.90;;;;;;5026859;28;20274;-82
2023/07/23 06:08:47;;;;;;;9.35;6.43;;;13.10;99.90;;;;;;5026293;28;20190;-82
2023/07/23 06:11:15;;;;;;;8.23;5.10;;;13.10;99.90;;;;;;5026156;28;20971;-82
2023/07/23 06:13:43;;;;;;;11.32;5.80;;;13.10;99.90;;;;;;5025039;28;20225;-81
2023/07/23 06:16:11;;;;;;;7.68;5.53;;;13.10;99.90;;;;;;5026459;28;20193;-82
2023/07/23 06:18:38;;;;;;;9.38;5.15;;;13.10;99.90;;;;;;5026217;28;20186;-83
2023/07/23 06:21:06;;;;;;;8.68;5.10;;;13.20;99.90;;;;;;5026414;28;20611;-83
2023/07/23 06:23:35;;;;;;;7.47;5.15;;;13.30;99.90;;;;;;5022091;28;20201;-82
2023/07/23 06:26:04;;;;;;;9.25;4.72;;;13.40;99.90;;;;;;5021576;28;20658;-82
2023/07/23 06:28:32;;;;;;;11.55;5.40;;;13.40;99.90;;;;;;5018322;28;20686;-83
2023/07/23 06:31:02;;;;;;;8.55;4.63;;;13.50;99.90;;;;;;5020758;28;20217;-83
2023/07/23 06:33:31;;;;;;;9.00;5.28;;;13.50;99.90;;;;;;5021177;28;20202;-82
2023/07/23 06:35:58;;;;;;;9.73;4.68;;;13.40;99.90;;;;;;5022759;27;20182;-83
2023/07/23 06:38:26;;;;;;;8.25;4.82;;;13.40;99.90;;;;;;5020708;28;20190;-85
2023/07/23 06:40:55;;;;;;;7.20;5.22;;;13.50;99.90;;;;;;5019148;28;20842;-85
2023/07/23 06:43:28;;;;;;;13.35;5.03;;;13.50;99.90;;;;;;5020931;28;20696;-86
2023/07/23 06:45:59;;;;;;;7.85;4.85;;;13.70;99.90;;;;;;5051867;27;20198;-87
2023/07/23 06:48:28;;;;;;;8.80;5.07;;;13.90;99.90;;;;;;5041152;28;20545;-85
2023/07/23 06:50:57;;;;;;;8.30;4.15;;;13.90;99.90;;;;;;5038393;28;20190;-85
2023/07/23 06:53:25;;;;;;;8.23;4.03;;;14.00;99.90;;;;;;5022728;28;20206;-85
2023/07/23 06:56:01;;;;;;;6.38;3.95;;;14.00;99.90;;;;;;5010841;28;20272;-86
2023/07/23 06:58:31;;;;;;;5.25;2.75;;;14.10;99.90;;;;;;5024885;28;20189;-85
2023/07/23 07:01:03;;;;;;;5.45;2.67;;;14.20;99.90;;;;;;5023244;28;20186;-85
2023/07/23 07:03:31;;;;;;;4.25;2.70;;;14.20;99.90;;;;;;5003922;28;20187;-86
2023/07/23 07:06:00;;;;;;;5.40;3.10;;;14.20;99.90;;;;;;5021705;28;20274;-83
2023/07/23 07:08:29;;;;;;;4.40;2.67;;;14.10;99.90;;;;;;5020100;28;20213;-86
2023/07/23 07:11:02;;;;;;;6.03;3.00;;;14.10;99.90;;;;;;5027077;28;20194;-85
2023/07/23 07:13:31;;;;;;;3.95;2.58;;;14.10;99.90;;;;;;5026552;28;20393;-85
2023/07/23 07:15:59;;;;;;;5.97;2.78;;;14.30;99.90;;;;;;5024011;28;20259;-85
2023/07/23 07:18:27;;;;;;;6.20;2.30;;;14.40;99.90;;;;;;5026669;28;20201;-87
2023/07/23 07:20:59;;;;;;;3.08;2.50;;;14.30;99.90;;;;;;5027097;28;20316;-85
2023/07/23 07:23:29;;;;;;;5.28;2.33;;;14.40;99.90;;;;;;5028009;28;20219;-85
2023/07/23 07:25:58;;;;;;;3.45;2.00;;;14.50;99.90;;;;;;5027995;28;20270;-87
2023/07/23 07:28:26;;;;;;;5.65;2.28;;;14.50;99.90;;;;;;5023867;28;20188;-86
2023/07/23 07:31:00;;;;;;;5.13;2.58;;;14.80;99.90;;;;;;5027582;28;20198;-86
2023/07/23 07:33:28;;;;;;;6.43;2.20;;;14.80;99.90;;;;;;5023200;28;20246;-86
2023/07/23 07:35:59;;;;;;;4.65;1.90;;;14.70;99.90;;;;;;5026676;28;20209;-84
2023/07/23 07:38:27;;;;;;;4.10;2.10;;;14.50;99.90;;;;;;5022406;28;20204;-85
2023/07/23 07:40:58;;;;;;;4.22;1.83;;;14.80;99.90;;;;;;5025500;28;20680;-85
2023/07/23 07:43:26;;;;;;;8.95;2.13;;;14.80;99.90;;;;;;5021556;28;20228;-87
2023/07/23 07:45:59;;;;;;;6.20;1.95;;;14.80;99.90;;;;;;5026656;28;20806;-84
2023/07/23 07:48:29;;;;;;;2.95;2.10;;;15.00;99.90;;;;;;5037662;28;20225;-86
2023/07/23 07:51:04;;;;;;;5.07;1.75;;;14.90;99.90;;;;;;5008409;28;20174;-88
2023/07/23 07:53:33;;;;;;;2.72;2.15;;;15.00;99.90;;;;;;5027617;28;20687;-84
2023/07/23 07:56:02;;;;;;;6.85;2.15;;;15.10;99.90;;;;;;5027391;28;20647;-86
2023/07/23 07:58:32;;;;;;;3.88;1.77;;;15.20;99.90;;;;;;5014428;28;20270;-85
2023/07/23 08:01:03;;;;;;;4.10;1.98;;;15.10;99.90;;;;;;5023671;28;20186;-87
2023/07/23 08:03:34;;;;;;;3.78;2.00;;;15.20;99.90;;;;;;5027636;27;20201;-86
2023/07/23 08:06:03;;;;;;;3.20;1.90;;;15.30;99.90;;;;;;5027689;28;20178;-86
2023/07/23 08:08:34;;;;;;;4.82;2.17;;;15.50;99.90;;;;;;5013207;28;20241;-85
2023/07/23 08:11:06;;;;;;;4.63;1.98;;;15.60;99.90;;;;;;5027597;28;20186;-86
2023/07/23 08:13:38;;;;;;;2.83;1.48;;;15.60;99.90;;;;;;5026136;28;20217;-85
2023/07/23 08:16:08;;;;;;;5.25;1.88;;;15.60;99.90;;;;;;5019613;28;20195;-85
2023/07/23 08:18:36;;;;;;;4.15;1.75;;;15.60;99.90;;;;;;5028337;28;20210;-87
2023/07/23 08:21:07;;;;;;;3.78;1.75;;;15.70;99.90;;;;;;5027620;28;20175;-87
2023/07/23 08:23:36;;;;;;;2.92;1.75;;;15.70;99.90;;;;;;5027647;28;20190;-87
2023/07/23 08:26:05;;;;;;;7.78;2.25;;;15.60;99.90;;;;;;5027783;28;20197;-86
2023/07/23 08:28:42;;;;;;;3.08;2.00;;;15.90;99.90;;;;;;5026747;28;20186;-86
2023/07/23 08:31:10;;;;;;;5.53;2.17;;;16.00;99.90;;;;;;5021489;28;20224;-85
2023/07/23 08:33:42;;;;;;;4.60;1.98;;;16.10;99.90;;;;;;5019157;28;20255;-85
2023/07/23 08:36:10;;;;;;;4.18;1.80;;;15.90;99.90;;;;;;5023489;28;20631;-85
2023/07/23 08:38:38;;;;;;;7.97;2.33;;;15.90;99.90;;;;;;5015629;28;20182;-86
2023/07/23 08:41:16;;;;;;;5.70;1.90;;;16.20;99.90;;;;;;5020266;28;20266;-85
2023/07/23 08:44:15;;;;;;;3.40;1.60;;;16.40;99.90;;;;;;5025786;28;20229;-85
2023/07/23 08:46:48;;;;;;;2.08;1.48;;;16.50;99.90;;;;;;5021665;28;20269;-86
2023/07/23 08:49:18;;;;;;;1.48;1.35;;;16.50;99.90;;;;;;5015664;28;20193;-85
2023/07/23 08:51:47;;;;;;;1.60;1.30;;;16.30;99.90;;;;;;5020119;28;20835;-86
2023/07/23 08:54:19;;;;;;;2.65;1.30;;;16.20;99.90;;;;;;5016778;28;20229;-85
2023/07/23 08:56:53;;;;;;;3.00;1.20;;;16.00;99.90;;;;;;5011088;28;20258;-86
2023/07/23 08:59:21;;;;;;;3.78;1.40;;;16.00;99.90;;;;;;5020017;28;20190;-88
2023/07/23 09:01:50;;;;;;;5.93;1.50;;;15.90;99.90;;;;;;5022352;28;20186;-84
2023/07/23 09:04:20;;;;;;;2.88;1.25;;;15.90;99.90;;;;;;5024614;28;20190;-86
2023/07/23 09:06:51;;;;;;;2.13;1.20;;;15.80;99.90;;;;;;5019561;28;20191;-86
2023/07/23 09:09:19;;;;;;;3.83;1.40;;;15.90;99.90;;;;;;5104671;28;20195;-86
2023/07/23 09:11:46;;;;;;;4.70;1.25;;;15.90;99.90;;;;;;5023891;28;20186;-85
2023/07/23 09:14:16;;;;;;;4.32;1.30;;;16.10;99.90;;;;;;5038526;28;20210;-85
2023/07/23 09:16:46;;;;;;;2.42;1.42;;;16.20;99.90;;;;;;5022462;28;20185;-84
2023/07/23 09:19:26;;;;;;;2.92;1.38;;;16.30;99.90;;;;;;5036844;28;20198;-83
2023/07/23 09:21:59;;;;;;;4.03;1.25;;;16.40;99.90;;;;;;5033864;28;20182;-83
2023/07/23 09:24:33;;;;;;;2.60;1.50;;;16.50;99.90;;;;;;5007046;28;20204;-84
2023/07/23 09:27:12;;;;;;;2.90;1.30;;;16.60;99.90;;;;;;5021227;28;20201;-83
2023/07/23 09:29:46;;;;;;;5.10;1.48;;;16.70;99.90;;;;;;5019399;28;20194;-85
2023/07/23 09:32:22;;;;;;;3.03;1.17;;;16.70;99.90;;;;;;5016860;28;20190;-85
2023/07/23 09:34:52;;;;;;;2.90;1.05;;;16.70;99.90;;;;;;5025722;28;20225;-86
2023/07/23 09:37:20;;;;;;;1.80;1.10;;;16.80;99.90;;;;;;5027224;28;20277;-84
2023/07/23 09:39:54;;;;;;;3.15;1.13;;;17.00;99.90;;;;;;5040627;28;20660;-83
2023/07/23 09:42:24;;;;;;;4.22;1.00;;;17.00;99.90;;;;;;5023180;28;20205;-83
2023/07/23 09:44:59;;;;;;;5.18;1.05;;;17.10;99.90;;;;;;5025154;28;20982;-83
2023/07/23 09:47:28;;;;;;;4.47;0.98;;;17.40;99.90;;;;;;5026534;28;20247;-83
2023/07/23 09:49:56;;;;;;;4.45;0.95;;;17.30;99.90;;;;;;5026418;28;20216;-83
2023/07/23 09:52:34;;;;;;;1.67;1.05;;;17.40;99.90;;;;;;5026332;28;20196;-83
2023/07/23 09:55:04;;;;;;;2.83;1.10;;;17.60;99.90;;;;;;5019303;28;20316;-83
2023/07/23 09:57:34;;;;;;;5.32;1.20;;;17.90;99.90;;;;;;5026092;28;20270;-83
2023/07/23 10:00:03;;;;;;;3.17;1.08;;;18.00;99.90;;;;;;5022009;28;20190;-83
2023/07/23 10:02:42;;;;;;;4.15;0.90;;;18.30;99.90;;;;;;5026601;28;20630;-82
2023/07/23 10:05:15;;;;;;;3.70;0.95;;;17.80;99.90;;;;;;5026384;28;20196;-83
2023/07/23 10:07:46;;;;;;;2.40;0.82;;;17.90;99.90;;;;;;5026466;28;20283;-83
2023/07/23 10:10:18;;;;;;;1.70;0.88;;;17.80;99.90;;;;;;5026732;28;20205;-83
2023/07/23 10:12:51;;;;;;;1.98;0.90;;;17.90;99.90;;;;;;5032067;28;20189;-83
2023/07/23 10:15:21;;;;;;;1.63;0.90;;;17.80;99.90;;;;;;5024780;28;20206;-83
2023/07/23 10:17:54;;;;;;;2.67;0.88;;;17.90;99.90;;;;;;5012959;28;20239;-83
2023/07/23 10:20:23;;;;;;;1.58;0.85;;;17.90;99.90;;;;;;5025710;28;20189;-83
2023/07/23 10:22:51;;;;;;;2.95;0.93;;;17.80;99.90;;;;;;5026339;28;20205;-83
2023/07/23 10:25:31;;;;;;;2.38;0.80;;;17.60;99.90;;;;;;5040803;28;20682;-83
2023/07/23 10:28:08;;;;;;;4.97;1.15;;;17.60;99.90;;;;;;5023609;28;20847;-83
2023/07/23 10:30:36;;;;;;;4.28;1.10;;;17.50;99.90;;;;;;5031876;28;20244;-83
2023/07/23 10:33:11;;;;;;;3.55;1.10;;;17.50;99.90;;;;;;5025802;28;20182;-83
2023/07/23 10:35:54;;;;;;;4.35;1.20;;;17.40;99.90;;;;;;5025677;28;20234;-84
2023/07/23 10:38:24;;;;;;;2.40;1.02;;;17.40;99.90;;;;;;5025251;28;20280;-83
2023/07/23 10:40:52;;;;;;;2.42;1.20;;;17.30;99.90;;;;;;5024566;28;20185;-83
2023/07/23 10:43:19;;;;;;;3.20;1.30;;;17.20;99.90;;;;;;5033250;27;20423;-83
2023/07/23 10:46:07;;;;;;;2.05;1.10;;;17.20;99.90;;;;;;5021854;28;20206;-83
2023/07/23 10:48:55;;;;;;;4.60;1.20;;;17.10;99.90;;;;;;5022973;28;20195;-83
2023/07/23 10:51:24;;;;;;;4.85;1.48;;;17.30;99.90;;;;;;5022094;28;20209;-83
2023/07/23 10:53:58;;;;;;;6.15;1.20;;;17.10;99.90;;;;;;5026206;28;20877;-83
2023/07/23 10:56:33;;;;;;;3.22;1.13;;;17.00;99.90;;;;;;5038154;28;20234;-84
2023/07/23 10:59:21;;;;;;;3.88;1.45;;;17.10;99.90;;;;;;5022521;28;20190;-85
2023/07/23 11:01:51;;;;;;;6.30;1.20;;;16.90;99.90;;;;;;5020603;28;20193;-84
2023/07/23 11:04:25;;;;;;;1.15;0.90;;;16.90;99.90;;;;;;5035164;27;20262;-84
2023/07/23 11:07:02;;;;;;;2.10;1.20;;;17.00;99.90;;;;;;4996108;28;20207;-84
2023/07/23 11:09:32;;;;;;;1.30;1.00;;;16.90;99.90;;;;;;5019694;28;20194;-84
2023/07/23 11:12:05;;;;;;;2.55;1.02;;;16.90;99.90;;;;;;5023246;28;20277;-85
2023/07/23 11:14:37;;;;;;;2.58;1.13;;;16.80;99.90;;;;;;5023666;28;20908;-85
2023/07/23 11:17:05;;;;;;;3.33;1.13;;;16.80;99.90;;;;;;5021990;28;20197;-84
2023/07/23 11:19:33;;;;;;;2.38;0.98;;;16.80;99.90;;;;;;5029605;28;20189;-84
2023/07/23 11:22:03;;;;;;;3.10;1.10;;;16.80;99.90;;;;;;5024471;28;20571;-84
2023/07/23 11:24:32;;;;;;;2.78;1.00;;;16.80;99.90;;;;;;5023762;28;20198;-86
2023/07/23 11:27:03;;;;;;;2.60;1.35;;;16.80;99.90;;;;;;5023676;28;20196;-84
2023/07/23 11:29:31;;;;;;;2.70;1.10;;;16.70;99.90;;;;;;5017113;28;20200;-84
2023/07/23 11:32:03;;;;;;;4.70;1.23;;;16.60;99.90;;;;;;5024635;28;20736;-85
2023/07/23 11:34:32;;;;;;;6.63;1.52;;;16.50;99.90;;;;;;5022998;28;20306;-84
2023/07/23 11:36:59;;;;;;;3.60;1.30;;;16.30;99.90;;;;;;5024837;28;20331;-85
2023/07/23 11:39:27;;;;;;;2.55;1.42;;;16.20;99.90;;;;;;5022139;28;20205;-84
2023/07/23 11:41:55;;;;;;;2.95;1.40;;;16.30;99.90;;;;;;5023537;28;20196;-84
2023/07/23 11:44:23;;;;;;;1.98;1.20;;;16.40;99.90;;;;;;5022862;28;20225;-85
2023/07/23 11:47:00;;;;;;;3.58;1.13;;;16.40;99.90;;;;;;5020394;28;20198;-84
2023/07/23 11:49:28;;;;;;;2.13;0.90;;;16.50;99.90;;;;;;4997122;28;20727;-84
2023/07/23 11:51:58;;;;;;;5.43;1.20;;;16.50;99.90;;;;;;5023725;28;20186;-86
2023/07/23 11:54:26;;;;;;;3.08;1.20;;;16.60;99.90;;;;;;5013249;27;20703;-85
2023/07/23 11:56:54;;;;;;;2.88;1.15;;;16.60;99.90;;;;;;5029980;28;20187;-85
2023/07/23 11:59:21;;;;;;;3.80;1.25;;;16.40;99.90;;;;;;5023272;28;20186;-86
2023/07/23 12:01:54;;;;;;;4.38;1.00;;;16.30;99.90;;;;;;5032894;28;20194;-86
2023/07/23 12:04:22;;;;;;;2.55;1.10;;;16.20;99.90;;;;;;5023340;28;20189;-85
2023/07/23 12:06:49;;;;;;;3.28;1.30;;;16.20;99.90;;;;;;5019231;28;20195;-85
2023/07/23 12:09:17;;;;;;;2.08;1.02;;;16.20;99.90;;;;;;5021931;28;20209;-85
2023/07/23 12:11:46;;;;;;;2.47;1.10;;;16.20;99.90;;;;;;5032464;28;20194;-85
2023/07/23 12:14:17;;;;;;;2.92;1.20;;;16.20;99.90;;;;;;5021064;28;20221;-85
2023/07/23 12:16:47;;;;;;;6.55;1.33;;;16.20;99.90;;;;;;5031786;28;20196;-86
2023/07/23 12:19:20;;;;;;;3.20;1.38;;;16.20;99.90;;;;;;5031759;28;20190;-86
2023/07/23 12:21:53;;;;;;;3.03;1.00;;;16.20;99.90;;;;;;5023050;28;20351;-85
2023/07/23 12:24:23;;;;;;;2.25;1.00;;;16.20;99.90;;;;;;5024215;28;20189;-85
2023/07/23 12:26:53;;;;;;;2.63;1.30;;;16.20;99.90;;;;;;5022667;28;20286;-86
2023/07/23 12:29:23;;;;;;;3.80;1.20;;;16.30;99.90;;;;;;5020579;28;20939;-85
2023/07/23 12:32:20;;;;;;;3.08;1.10;;;16.30;99.90;;;;;;5024804;28;20197;-85
2023/07/23 12:34:48;;;;;;;7.75;1.08;;;16.30;99.90;;;;;;5019681;28;20305;-85
2023/07/23 12:37:17;;;;;;;4.38;0.93;;;16.40;99.90;;;;;;5024185;28;20980;-85
2023/07/23 12:39:49;;;;;;;3.95;0.80;;;16.40;99.90;;;;;;5020724;28;20298;-85
2023/07/23 12:42:16;;;;;;;1.95;1.15;;;16.40;99.90;;;;;;5022898;28;20194;-85
2023/07/23 12:44:45;;;;;;;4.30;1.08;;;16.60;99.90;;;;;;5024145;28;20238;-85
2023/07/23 12:47:16;;;;;;;4.35;0.90;;;16.70;99.90;;;;;;5022637;28;20602;-85
2023/07/23 12:49:52;;;;;;;1.75;0.82;;;16.90;99.90;;;;;;5024399;28;20736;-85
2023/07/23 12:52:21;;;;;;;4.80;0.70;;;17.00;99.90;;;;;;5024034;28;20200;-85
2023/07/23 12:54:49;;;;;;;3.60;0.98;;;16.90;99.90;;;;;;5009140;28;20201;-85
2023/07/23 12:57:20;;;;;;;2.80;0.88;;;16.80;99.90;;;;;;5042514;28;20194;-85
2023/07/23 12:59:48;;;;;;;1.00;0.70;;;16.80;99.90;;;;;;5026473;28;20197;-84
2023/07/23 13:02:15;;;;;;;5.90;1.25;;;16.80;99.90;;;;;;5027936;28;20190;-85
2023/07/23 13:04:44;;;;;;;1.08;0.70;;;16.80;99.90;;;;;;5027319;28;20345;-83
2023/07/23 13:07:12;;;;;;;2.72;0.90;;;16.70;99.90;;;;;;5013294;28;20190;-84
2023/07/23 13:09:40;;;;;;;5.72;1.10;;;16.50;99.90;;;;;;5023712;28;20203;-85